createdAt,value
2023-03-27T00:01:01.600Z,100218.00
2023-03-27T00:03:50.260Z,100221.19
2023-03-27T00:06:35.504Z,100225.16
2023-03-27T00:09:21.269Z,100236.06
2023-03-27T00:12:06.619Z,100241.00
2023-03-27T00:14:51.707Z,100261.72
2023-03-27T00:17:37.192Z,100276.84
2023-03-27T00:20:23.085Z,100289.03
2023-03-27T00:23:08.758Z,100293.13
2023-03-27T00:25:54.350Z,100310.63
2023-03-27T00:28:39.839Z,100323.66
2023-03-27T00:31:25.306Z,100308.28
2023-03-27T00:34:10.743Z,100319.31
2023-03-27T00:36:56.087Z,100323.44
2023-03-27T00:39:41.333Z,100316.63
2023-03-27T00:42:26.771Z,100347.97
2023-03-27T00:45:30.208Z,100352.00
2023-03-27T00:48:16.547Z,100366.75
2023-03-27T00:51:03.659Z,100364.16
2023-03-27T00:53:51.313Z,100387.31
2023-03-27T00:56:37.045Z,100396.47
2023-03-27T00:59:28.448Z,100393.22
2023-03-27T01:02:17.728Z,100404.69
2023-03-27T01:05:03.086Z,100398.78
2023-03-27T01:08:01.251Z,100404.59
2023-03-27T01:10:58.933Z,100428.09
2023-03-27T01:14:09.141Z,100415.28
2023-03-27T01:16:54.299Z,100423.38
2023-03-27T01:20:16.653Z,100426.66
2023-03-27T01:23:35.735Z,100426.19
2023-03-27T01:26:40.320Z,100437.66
2023-03-27T01:29:58.608Z,100446.47
2023-03-27T01:33:22.063Z,100452.59
2023-03-27T01:36:20.883Z,100462.72
2023-03-27T01:39:27.034Z,100459.06
2023-03-27T01:42:15.483Z,100454.91
2023-03-27T01:45:24.465Z,100464.84
2023-03-27T01:48:22.439Z,100469.28
2023-03-27T01:51:21.518Z,100461.34
2023-03-27T01:54:12.617Z,100470.50
2023-03-27T01:57:07.331Z,100470.38
2023-03-27T02:00:18.807Z,100477.91
2023-03-27T02:03:19.226Z,100478.72
2023-03-27T02:06:16.291Z,100483.81
2023-03-27T02:09:10.543Z,100497.34
2023-03-27T02:12:02.971Z,100493.34
2023-03-27T02:14:54.507Z,100501.50
2023-03-27T02:17:45.867Z,100509.75
2023-03-27T02:20:35.649Z,100502.06
2023-03-27T02:23:20.990Z,100510.41
2023-03-27T02:26:09.283Z,100518.59
2023-03-27T02:29:15.425Z,100519.22
2023-03-27T02:32:23.395Z,100529.56
2023-03-27T02:35:22.809Z,100534.50
2023-03-27T02:38:19.223Z,100536.44
2023-03-27T02:41:36.923Z,100547.94
2023-03-27T02:44:28.895Z,100559.38
2023-03-27T02:47:27.214Z,100552.16
2023-03-27T02:50:18.553Z,100557.28
2023-03-27T02:53:06.595Z,100558.22
2023-03-27T02:55:55.429Z,100561.50
2023-03-27T02:58:59.398Z,100566.97
2023-03-27T03:01:45.480Z,100570.13
2023-03-27T03:04:42.953Z,100579.59
2023-03-27T03:07:28.227Z,100582.25
2023-03-27T03:10:15.260Z,100579.66
2023-03-27T03:13:00.324Z,100585.31
2023-03-27T03:15:45.718Z,100605.69
2023-03-27T03:18:31.216Z,100613.53
2023-03-27T03:21:16.725Z,100628.06
2023-03-27T03:24:02.112Z,100633.38
2023-03-27T03:26:47.826Z,100636.75
2023-03-27T03:29:33.206Z,100642.38
2023-03-27T03:32:18.516Z,100644.00
2023-03-27T03:35:04.020Z,100661.03
2023-03-27T03:37:50.764Z,100660.81
2023-03-27T03:40:36.553Z,100666.19
2023-03-27T03:43:27.919Z,100676.88
2023-03-27T03:46:13.115Z,100691.09
2023-03-27T03:48:59.347Z,100691.16
2023-03-27T03:51:44.922Z,100700.47
2023-03-27T03:54:30.178Z,100706.34
2023-03-27T03:57:15.594Z,100712.28
2023-03-27T04:00:01.618Z,100726.00
2023-03-27T04:02:50.567Z,100733.13
2023-03-27T04:05:37.291Z,100741.38
2023-03-27T04:08:22.512Z,100740.28
2023-03-27T04:11:07.895Z,100746.59
2023-03-27T04:13:53.253Z,100746.00
2023-03-27T04:16:38.624Z,100746.75
2023-03-27T04:19:23.948Z,100750.63
2023-03-27T04:22:09.533Z,100762.94
2023-03-27T04:24:54.916Z,100751.84
2023-03-27T04:27:40.982Z,100762.31
2023-03-27T04:30:26.479Z,100774.75
2023-03-27T04:33:11.835Z,100769.66
2023-03-27T04:36:06.151Z,100779.25
2023-03-27T04:38:53.002Z,100780.25
2023-03-27T04:41:38.415Z,100785.22
2023-03-27T04:44:24.074Z,100785.75
2023-03-27T04:47:09.193Z,100783.56
2023-03-27T04:49:54.188Z,100781.28
2023-03-27T04:52:39.759Z,100790.66
2023-03-27T04:55:25.573Z,100785.22
2023-03-27T04:58:10.668Z,100792.91
2023-03-27T05:00:56.520Z,100789.84
2023-03-27T05:03:41.995Z,100804.78
2023-03-27T05:06:27.225Z,100804.44
2023-03-27T05:09:12.662Z,100806.38
2023-03-27T05:11:57.996Z,100801.16
2023-03-27T05:14:43.776Z,100809.69
2023-03-27T05:17:28.959Z,100807.63
2023-03-27T05:20:16.486Z,100808.94
2023-03-27T05:23:02.079Z,100823.50
2023-03-27T05:26:00.035Z,100830.13
2023-03-27T05:28:46.085Z,100837.75
2023-03-27T05:31:32.475Z,100830.41
2023-03-27T05:34:18.107Z,100833.88
2023-03-27T05:37:03.400Z,100831.53
2023-03-27T05:39:48.931Z,100850.50
2023-03-27T05:42:34.218Z,100856.94
2023-03-27T05:45:20.632Z,100862.31
2023-03-27T05:48:06.075Z,100878.34
2023-03-27T05:50:51.289Z,100876.22
2023-03-27T05:53:37.057Z,100871.34
2023-03-27T05:56:22.456Z,100869.72
2023-03-27T05:59:07.864Z,100867.91
2023-03-27T06:01:53.247Z,100880.06
2023-03-27T06:04:39.633Z,100876.47
2023-03-27T06:07:24.892Z,100863.25
2023-03-27T06:10:13.398Z,100874.25
2023-03-27T06:13:04.009Z,100863.50
2023-03-27T06:15:53.673Z,100869.31
2023-03-27T06:18:38.705Z,100871.13
2023-03-27T06:21:24.428Z,100892.19
2023-03-27T06:24:09.425Z,100892.44
2023-03-27T06:26:54.838Z,100895.38
2023-03-27T06:29:40.256Z,100883.28
2023-03-27T06:32:27.541Z,100878.09
2023-03-27T06:35:13.440Z,100868.41
2023-03-27T06:37:59.940Z,100847.38
2023-03-27T06:40:46.413Z,100830.97
2023-03-27T06:43:31.794Z,100829.53
2023-03-27T06:46:17.009Z,100800.63
2023-03-27T06:49:02.364Z,100804.25
2023-03-27T06:51:47.595Z,100779.22
2023-03-27T06:54:32.960Z,100772.63
2023-03-27T06:57:18.168Z,100756.31
2023-03-27T07:00:05.224Z,100736.63
2023-03-27T07:02:54.132Z,100728.78
2023-03-27T07:05:40.760Z,100723.72
2023-03-27T07:08:26.068Z,100724.59
2023-03-27T07:11:12.682Z,100678.72
2023-03-27T07:13:58.341Z,100698.16
2023-03-27T07:16:43.723Z,100666.09
2023-03-27T07:19:29.187Z,100639.09
2023-03-27T07:22:14.166Z,100600.59
2023-03-27T07:24:59.465Z,100623.06
2023-03-27T07:27:44.764Z,100628.09
2023-03-27T07:30:30.010Z,100636.78
2023-03-27T07:33:15.306Z,100620.66
2023-03-27T07:36:00.873Z,100637.94
2023-03-27T07:38:46.061Z,100625.34
2023-03-27T07:41:31.431Z,100637.75
2023-03-27T07:44:16.322Z,100676.03
2023-03-27T07:47:01.415Z,100716.09
2023-03-27T07:49:46.549Z,100750.69
2023-03-27T07:52:31.544Z,100790.00
2023-03-27T07:55:17.973Z,100808.69
2023-03-27T07:58:03.830Z,100835.84
2023-03-27T08:00:49.010Z,100823.78
2023-03-27T08:03:33.777Z,100793.00
2023-03-27T08:06:19.772Z,100739.69
2023-03-27T08:09:05.006Z,100696.66
2023-03-27T08:11:50.036Z,100647.06
2023-03-27T08:14:35.595Z,100600.69
2023-03-27T08:17:22.136Z,100613.41
2023-03-27T08:20:07.840Z,100580.31
2023-03-27T08:22:52.996Z,100571.34
2023-03-27T08:25:38.173Z,100563.50
2023-03-27T08:28:23.538Z,100526.13
2023-03-27T08:31:16.632Z,100536.38
2023-03-27T08:34:03.064Z,100541.03
2023-03-27T08:36:48.493Z,100591.63
2023-03-27T08:39:33.752Z,100588.34
2023-03-27T08:42:25.330Z,100577.38
2023-03-27T08:45:38.129Z,100635.09
2023-03-27T08:48:27.184Z,100637.03
2023-03-27T08:51:48.495Z,100636.00
2023-03-27T08:54:35.516Z,100667.34
2023-03-27T08:57:23.973Z,100639.06
2023-03-27T09:00:14.972Z,100645.16
2023-03-27T09:03:09.538Z,100661.66
2023-03-27T09:06:00.243Z,100679.47
2023-03-27T09:09:06.555Z,100674.34
2023-03-27T09:11:58.421Z,100706.53
2023-03-27T09:14:48.510Z,100627.66
2023-03-27T09:17:39.145Z,100603.00
2023-03-27T09:20:27.805Z,100573.00
2023-03-27T09:23:31.737Z,100511.50
2023-03-27T09:26:20.908Z,100493.63
2023-03-27T09:29:21.819Z,100487.88
2023-03-27T09:32:13.355Z,100517.50
2023-03-27T09:34:58.956Z,100538.50
2023-03-27T09:37:44.905Z,100509.78
2023-03-27T09:40:41.614Z,100459.94
2023-03-27T09:43:35.889Z,100474.13
2023-03-27T09:46:23.871Z,100481.25
2023-03-27T09:49:17.911Z,100506.28
2023-03-27T09:52:03.004Z,100437.66
2023-03-27T09:54:53.944Z,100514.94
2023-03-27T09:57:40.081Z,100606.41
2023-03-27T10:00:33.936Z,100590.44
2023-03-27T10:03:20.654Z,100597.97
2023-03-27T10:06:08.888Z,100622.66
2023-03-27T10:08:55.715Z,100586.06
2023-03-27T10:11:43.287Z,100526.13
2023-03-27T10:14:29.421Z,100497.19
2023-03-27T10:17:48.664Z,100580.47
2023-03-27T10:20:34.702Z,100569.19
2023-03-27T10:23:24.787Z,100618.50
2023-03-27T10:26:12.870Z,100643.47
2023-03-27T10:29:01.213Z,100645.78
2023-03-27T10:31:52.453Z,100626.84
2023-03-27T10:35:00.220Z,100597.81
2023-03-27T10:37:50.439Z,100559.28
2023-03-27T10:40:38.987Z,100548.59
2023-03-27T10:43:36.646Z,100535.53
2023-03-27T10:46:26.067Z,100532.50
2023-03-27T10:49:36.890Z,100563.63
2023-03-27T10:52:46.820Z,100512.13
2023-03-27T10:56:18.438Z,100534.38
2023-03-27T10:59:15.319Z,100632.34
2023-03-27T11:02:11.465Z,100638.25
2023-03-27T11:05:07.296Z,100580.91
2023-03-27T11:07:59.280Z,100545.78
2023-03-27T11:10:46.633Z,100533.81
2023-03-27T11:13:36.486Z,100525.59
2023-03-27T11:16:49.482Z,100568.00
2023-03-27T11:19:41.890Z,100596.69
2023-03-27T11:22:32.956Z,100531.75
2023-03-27T11:25:35.353Z,100581.72
2023-03-27T11:28:30.503Z,100568.63
2023-03-27T11:31:35.492Z,100623.09
2023-03-27T11:34:29.717Z,100677.81
2023-03-27T11:37:24.652Z,100704.56
2023-03-27T11:40:18.050Z,100687.69
2023-03-27T11:43:03.810Z,100719.69
2023-03-27T11:46:17.949Z,100748.28
2023-03-27T11:49:26.691Z,100795.19
2023-03-27T11:52:33.274Z,100751.41
2023-03-27T11:55:32.421Z,100785.50
2023-03-27T11:58:34.531Z,100752.50
2023-03-27T12:01:39.972Z,100729.75
2023-03-27T12:04:40.390Z,100740.38
2023-03-27T12:07:47.873Z,100752.22
2023-03-27T12:10:36.598Z,100657.19
2023-03-27T12:13:41.332Z,100587.38
2023-03-27T12:16:59.589Z,100671.50
2023-03-27T12:19:57.081Z,100611.16
2023-03-27T12:23:04.862Z,100599.09
2023-03-27T12:25:59.546Z,100660.13
2023-03-27T12:29:23.413Z,100644.28
2023-03-27T12:32:24.539Z,100560.75
2023-03-27T12:35:13.535Z,100582.09
2023-03-27T12:38:21.266Z,100678.56
2023-03-27T12:41:09.586Z,100570.03
2023-03-27T12:43:58.504Z,100614.31
2023-03-27T12:46:43.972Z,100544.91
2023-03-27T12:50:00.238Z,100424.47
2023-03-27T12:52:45.782Z,100518.50
2023-03-27T12:55:36.278Z,100456.50
2023-03-27T12:58:34.079Z,100502.97
2023-03-27T13:01:51.799Z,100525.19
2023-03-27T13:04:56.430Z,100690.16
2023-03-27T13:08:10.173Z,100787.25
2023-03-27T13:11:11.371Z,100722.34
2023-03-27T13:14:14.105Z,100739.44
2023-03-27T13:17:24.392Z,100767.78
2023-03-27T13:20:24.651Z,100681.06
2023-03-27T13:23:16.121Z,100659.94
2023-03-27T13:26:18.018Z,100651.38
2023-03-27T13:29:15.405Z,100744.44
2023-03-27T13:32:05.882Z,100741.31
2023-03-27T13:35:25.563Z,100829.19
2023-03-27T13:38:12.154Z,100880.34
2023-03-27T13:41:35.799Z,100955.59
2023-03-27T13:44:41.364Z,101031.13
2023-03-27T13:47:32.884Z,101077.28
2023-03-27T13:50:43.578Z,101083.31
2023-03-27T13:53:46.593Z,101076.06
2023-03-27T13:56:50.770Z,101090.09
2023-03-27T13:59:50.136Z,101121.50
2023-03-27T14:02:47.608Z,101161.31
2023-03-27T14:05:57.040Z,101164.69
2023-03-27T14:08:45.070Z,101183.78
2023-03-27T14:11:49.119Z,101201.03
2023-03-27T14:14:43.410Z,101211.31
2023-03-27T14:17:37.878Z,101199.59
2023-03-27T14:20:43.105Z,101202.09
2023-03-27T14:23:32.368Z,101184.19
2023-03-27T14:26:24.047Z,101172.69
2023-03-27T14:29:09.616Z,101162.50
2023-03-27T14:32:02.252Z,101126.56
2023-03-27T14:37:38.231Z,101093.78
2023-03-27T14:40:31.084Z,101064.97
2023-03-27T14:43:20.288Z,101051.59
2023-03-27T14:46:06.275Z,101050.72
2023-03-27T14:48:55.196Z,101032.63
2023-03-27T14:51:41.521Z,101032.22
2023-03-27T14:54:27.388Z,101043.38
2023-03-27T14:57:13.217Z,100989.59
2023-03-27T14:59:59.146Z,100986.44
2023-03-27T15:02:48.861Z,100991.66
2023-03-27T15:05:33.984Z,100993.63
2023-03-27T15:08:20.701Z,101015.94
2023-03-27T15:11:11.300Z,101021.63
2023-03-27T15:13:56.784Z,101031.25
2023-03-27T15:16:53.283Z,101049.47
2023-03-27T15:19:47.456Z,101067.56
2023-03-27T15:22:37.052Z,101094.94
2023-03-27T15:25:39.768Z,101147.47
2023-03-27T15:28:32.248Z,101171.13
2023-03-27T15:31:17.806Z,101188.03
2023-03-27T15:34:42.609Z,101188.09
2023-03-27T15:37:28.903Z,101213.28
2023-03-27T15:40:17.382Z,101193.84
2023-03-27T15:43:20.718Z,101195.34
2023-03-27T15:46:12.677Z,101172.13
2023-03-27T15:48:57.704Z,101173.75
2023-03-27T15:51:42.736Z,101154.81
2023-03-27T15:54:32.129Z,101129.16
2023-03-27T15:57:18.425Z,101061.06
2023-03-27T16:00:13.138Z,101038.00
2023-03-27T16:02:59.271Z,101000.75
2023-03-27T16:05:44.882Z,100975.91
2023-03-27T16:08:38.106Z,100920.28
2023-03-27T16:11:38.377Z,100900.59
2023-03-27T16:14:52.644Z,100920.34
2023-03-27T16:17:45.242Z,100961.53
2023-03-27T16:20:34.148Z,100949.56
2023-03-27T16:23:19.168Z,100960.63
2023-03-27T16:26:06.680Z,100981.50
2023-03-27T16:28:56.372Z,101001.06
2023-03-27T16:31:41.789Z,101026.47
2023-03-27T16:34:26.938Z,101045.59
2023-03-27T16:37:12.743Z,101050.88
2023-03-27T16:39:58.061Z,101023.81
2023-03-27T16:42:43.565Z,101005.66
2023-03-27T16:45:29.018Z,101028.47
2023-03-27T16:48:14.121Z,101026.34
2023-03-27T16:50:59.553Z,101043.31
2023-03-27T16:53:44.989Z,101026.78
2023-03-27T16:56:30.065Z,100982.06
2023-03-27T16:59:15.396Z,100996.25
2023-03-27T17:02:00.338Z,101017.28
2023-03-27T17:04:46.108Z,101067.31
2023-03-27T17:07:32.583Z,101117.97
2023-03-27T17:10:17.835Z,101170.81
2023-03-27T17:13:03.420Z,101205.81
2023-03-27T17:15:51.511Z,101220.31
2023-03-27T17:18:37.189Z,101224.00
2023-03-27T17:21:23.516Z,101226.13
2023-03-27T17:24:09.115Z,101231.75
2023-03-27T17:26:54.491Z,101241.84
2023-03-27T17:29:39.659Z,101245.38
2023-03-27T17:32:26.140Z,101243.31
2023-03-27T17:35:11.351Z,101242.19
2023-03-27T17:37:57.310Z,101229.91
2023-03-27T17:40:42.682Z,101242.22
2023-03-27T17:43:27.780Z,101248.22
2023-03-27T17:46:13.972Z,101266.06
2023-03-27T17:48:58.913Z,101275.38
2023-03-27T17:51:44.376Z,101285.34
2023-03-27T17:54:29.674Z,101291.84
2023-03-27T17:57:15.336Z,101307.75
2023-03-27T18:00:00.404Z,101319.25
2023-03-27T18:02:45.898Z,101337.22
2023-03-27T18:05:38.891Z,101344.72
2023-03-27T18:08:24.402Z,101372.09
2023-03-27T18:11:11.827Z,101371.84
2023-03-27T18:13:59.287Z,101384.47
2023-03-27T18:16:44.493Z,101393.66
2023-03-27T18:19:29.857Z,101400.63
2023-03-27T18:22:15.229Z,101395.28
2023-03-27T18:25:00.506Z,101407.78
2023-03-27T18:27:45.766Z,101411.94
2023-03-27T18:30:32.294Z,101419.00
2023-03-27T18:33:17.640Z,101412.19
2023-03-27T18:36:04.669Z,101412.28
2023-03-27T18:38:49.892Z,101411.06
2023-03-27T18:41:35.395Z,101425.41
2023-03-27T18:44:20.953Z,101442.34
2023-03-27T18:47:06.865Z,101443.41
2023-03-27T18:49:52.110Z,101454.97
2023-03-27T18:52:38.166Z,101459.94
2023-03-27T18:55:23.512Z,101467.72
2023-03-27T18:58:10.620Z,101470.09
2023-03-27T19:00:56.464Z,101476.19
2023-03-27T19:03:42.378Z,101466.88
2023-03-27T19:06:27.783Z,101462.22
2023-03-27T19:09:13.825Z,101466.22
2023-03-27T19:11:59.521Z,101475.16
2023-03-27T19:14:45.025Z,101477.28
2023-03-27T19:17:30.344Z,101467.06
2023-03-27T19:20:15.937Z,101480.53
2023-03-27T19:23:01.401Z,101469.38
2023-03-27T19:25:50.243Z,101469.25
2023-03-27T19:28:35.634Z,101473.28
2023-03-27T19:31:20.734Z,101468.56
2023-03-27T19:34:06.656Z,101466.84
2023-03-27T19:36:52.280Z,101448.31
2023-03-27T19:39:37.612Z,101448.84
2023-03-27T19:42:23.087Z,101442.97
2023-03-27T19:45:08.441Z,101444.91
2023-03-27T19:47:53.533Z,101433.47
2023-03-27T19:50:38.922Z,101436.22
2023-03-27T19:53:24.967Z,101430.41
2023-03-27T19:56:10.377Z,101425.63
2023-03-27T19:58:55.598Z,101439.28
2023-03-27T20:01:41.241Z,101429.00
2023-03-27T20:04:26.649Z,101425.19
2023-03-27T20:07:12.248Z,101422.44
2023-03-27T20:09:57.697Z,101416.66
2023-03-27T20:12:43.065Z,101425.13
2023-03-27T20:15:28.438Z,101418.50
2023-03-27T20:18:13.439Z,101424.41
2023-03-27T20:21:01.876Z,101433.38
2023-03-27T20:23:46.918Z,101425.81
2023-03-27T20:26:32.616Z,101429.75
2023-03-27T20:29:20.591Z,101438.44
2023-03-27T20:32:07.601Z,101447.59
2023-03-27T20:34:54.746Z,101449.69
2023-03-27T20:37:40.198Z,101457.00
2023-03-27T20:40:26.107Z,101475.31
2023-03-27T20:43:12.922Z,101471.69
2023-03-27T20:45:58.406Z,101475.22
2023-03-27T20:48:43.826Z,101488.19
2023-03-27T20:51:39.206Z,101496.16
2023-03-27T20:54:25.103Z,101504.47
2023-03-27T20:57:10.918Z,101503.59
2023-03-27T20:59:56.290Z,101508.41
2023-03-27T21:02:41.852Z,101509.56
2023-03-27T21:05:27.402Z,101506.31
2023-03-27T21:08:13.222Z,101506.94
2023-03-27T21:10:58.475Z,101510.19
2023-03-27T21:13:43.969Z,101501.81
2023-03-27T21:16:29.275Z,101509.25
2023-03-27T21:19:14.637Z,101514.78
2023-03-27T21:22:00.017Z,101503.47
2023-03-27T21:24:45.597Z,101504.16
2023-03-27T21:27:30.970Z,101502.22
2023-03-27T21:30:16.638Z,101501.72
2023-03-27T21:33:02.077Z,101512.63
2023-03-27T21:35:48.620Z,101528.91
2023-03-27T21:38:33.920Z,101525.16
2023-03-27T21:41:19.510Z,101535.66
2023-03-27T21:44:04.708Z,101537.63
2023-03-27T21:46:50.208Z,101543.25
2023-03-27T21:49:35.220Z,101544.13
2023-03-27T21:52:21.002Z,101547.66
2023-03-27T21:55:06.324Z,101549.66
2023-03-27T21:57:51.576Z,101551.53
2023-03-27T22:00:37.078Z,101568.41
2023-03-27T22:03:23.048Z,101563.84
2023-03-27T22:06:12.989Z,101564.44
2023-03-27T22:08:58.777Z,101576.44
2023-03-27T22:11:44.353Z,101578.22
2023-03-27T22:14:29.664Z,101577.66
2023-03-27T22:17:14.878Z,101581.59
2023-03-27T22:20:00.178Z,101579.28
2023-03-27T22:22:46.073Z,101574.97
2023-03-27T22:25:31.114Z,101569.34
2023-03-27T22:28:16.589Z,101571.03
2023-03-27T22:31:02.702Z,101574.25
2023-03-27T22:33:50.133Z,101576.72
2023-03-27T22:36:35.335Z,101579.13
2023-03-27T22:39:20.665Z,101587.47
2023-03-27T22:42:06.083Z,101594.44
2023-03-27T22:44:51.469Z,101593.91
2023-03-27T22:47:37.075Z,101599.88
2023-03-27T22:50:22.391Z,101611.84
2023-03-27T22:53:07.895Z,101625.06
2023-03-27T22:55:55.217Z,101625.84
2023-03-27T22:58:40.606Z,101629.22
2023-03-27T23:01:26.028Z,101629.91
2023-03-27T23:04:11.534Z,101634.25
2023-03-27T23:06:56.731Z,101636.53
2023-03-27T23:09:42.293Z,101642.63
2023-03-27T23:12:27.177Z,101650.56
2023-03-27T23:15:12.743Z,101654.72
2023-03-27T23:17:58.017Z,101656.09
2023-03-27T23:20:43.136Z,101661.09
2023-03-27T23:23:30.519Z,101664.19
2023-03-27T23:26:16.218Z,101670.50
2023-03-27T23:29:01.534Z,101669.38
2023-03-27T23:31:47.068Z,101673.03
2023-03-27T23:34:32.347Z,101683.13
2023-03-27T23:37:17.367Z,101675.78
2023-03-27T23:40:03.683Z,101680.28
2023-03-27T23:42:49.156Z,101674.44
2023-03-27T23:45:34.332Z,101681.09
2023-03-27T23:48:19.672Z,101685.19
2023-03-27T23:51:06.133Z,101682.16
2023-03-27T23:53:51.394Z,101692.41
2023-03-27T23:56:36.336Z,101685.97
2023-03-27T23:59:21.931Z,101682.16
